sensor_id;sensor_type;location;lat;lon;timestamp;P1;durP1;ratioP1;P2;durP2;ratioP2
7939;SDS011;4015;48.888;9.226;2022-08-19T00:00:26;12.48;;;11.38;;
7939;SDS011;4015;48.888;9.226;2022-08-19T00:02:52;12.15;;;10.98;;
7939;SDS011;4015;48.888;9.226;2022-08-19T00:05:18;13.48;;;12.25;;
7939;SDS011;4015;48.888;9.226;2022-08-19T00:07:45;12.25;;;11.05;;
7939;SDS011;4015;48.888;9.226;2022-08-19T00:10:12;13.65;;;12.35;;
7939;SDS011;4015;48.888;9.226;2022-08-19T00:12:39;12.88;;;11.55;;
7939;SDS011;4015;48.888;9.226;2022-08-19T00:15:05;13.75;;;12.55;;
7939;SDS011;4015;48.888;9.226;2022-08-19T00:17:35;13.23;;;11.93;;
7939;SDS011;4015;48.888;9.226;2022-08-19T00:20:00;13.20;;;12.00;;
7939;SDS011;4015;48.888;9.226;2022-08-19T00:22:26;13.00;;;11.80;;
7939;SDS011;4015;48.888;9.226;2022-08-19T00:24:53;14.18;;;12.82;;
7939;SDS011;4015;48.888;9.226;2022-08-19T00:27:19;14.32;;;12.05;;
7939;SDS011;4015;48.888;9.226;2022-08-19T00:29:44;13.20;;;11.88;;
7939;SDS011;4015;48.888;9.226;2022-08-19T00:32:09;13.07;;;11.80;;
7939;SDS011;4015;48.888;9.226;2022-08-19T00:34:35;13.80;;;12.32;;
7939;SDS011;4015;48.888;9.226;2022-08-19T00:37:01;14.48;;;13.18;;
7939;SDS011;4015;48.888;9.226;2022-08-19T00:39:26;14.35;;;13.02;;
7939;SDS011;4015;48.888;9.226;2022-08-19T00:41:51;13.63;;;12.32;;
7939;SDS011;4015;48.888;9.226;2022-08-19T00:44:18;14.02;;;12.63;;
7939;SDS011;4015;48.888;9.226;2022-08-19T00:46:47;14.85;;;13.18;;
7939;SDS011;4015;48.888;9.226;2022-08-19T00:49:15;13.82;;;12.38;;
7939;SDS011;4015;48.888;9.226;2022-08-19T00:51:45;13.70;;;12.30;;
7939;SDS011;4015;48.888;9.226;2022-08-19T00:54:14;13.40;;;12.00;;
7939;SDS011;4015;48.888;9.226;2022-08-19T00:56:40;13.23;;;12.02;;
7939;SDS011;4015;48.888;9.226;2022-08-19T00:59:06;15.55;;;12.65;;
7939;SDS011;4015;48.888;9.226;2022-08-19T01:01:37;14.38;;;12.18;;
7939;SDS011;4015;48.888;9.226;2022-08-19T01:04:04;13.82;;;12.63;;
7939;SDS011;4015;48.888;9.226;2022-08-19T01:06:30;13.35;;;12.13;;
7939;SDS011;4015;48.888;9.226;2022-08-19T01:08:58;14.35;;;12.85;;
7939;SDS011;4015;48.888;9.226;2022-08-19T01:11:24;14.52;;;12.25;;
7939;SDS011;4015;48.888;9.226;2022-08-19T01:13:52;13.95;;;12.65;;
7939;SDS011;4015;48.888;9.226;2022-08-19T01:16:19;18.02;;;13.68;;
7939;SDS011;4015;48.888;9.226;2022-08-19T01:18:46;15.35;;;13.75;;
7939;SDS011;4015;48.888;9.226;2022-08-19T01:21:24;14.43;;;12.45;;
7939;SDS011;4015;48.888;9.226;2022-08-19T01:23:56;13.70;;;12.30;;
7939;SDS011;4015;48.888;9.226;2022-08-19T01:26:22;15.23;;;13.45;;
7939;SDS011;4015;48.888;9.226;2022-08-19T01:28:51;13.77;;;12.52;;
7939;SDS011;4015;48.888;9.226;2022-08-19T01:31:19;14.68;;;13.15;;
7939;SDS011;4015;48.888;9.226;2022-08-19T01:33:47;14.48;;;12.98;;
7939;SDS011;4015;48.888;9.226;2022-08-19T01:36:22;12.95;;;11.65;;
7939;SDS011;4015;48.888;9.226;2022-08-19T01:38:48;15.80;;;14.10;;
7939;SDS011;4015;48.888;9.226;2022-08-19T01:41:14;19.50;;;13.55;;
7939;SDS011;4015;48.888;9.226;2022-08-19T01:43:42;16.17;;;14.07;;
7939;SDS011;4015;48.888;9.226;2022-08-19T01:46:07;16.35;;;13.20;;
7939;SDS011;4015;48.888;9.226;2022-08-19T01:48:34;15.73;;;14.13;;
7939;SDS011;4015;48.888;9.226;2022-08-19T01:51:02;14.50;;;13.07;;
7939;SDS011;4015;48.888;9.226;2022-08-19T01:53:28;14.60;;;12.40;;
7939;SDS011;4015;48.888;9.226;2022-08-19T01:55:53;13.85;;;12.52;;
7939;SDS011;4015;48.888;9.226;2022-08-19T01:58:21;17.90;;;14.15;;
7939;SDS011;4015;48.888;9.226;2022-08-19T02:00:50;15.18;;;13.57;;
7939;SDS011;4015;48.888;9.226;2022-08-19T02:03:16;16.42;;;14.70;;
7939;SDS011;4015;48.888;9.226;2022-08-19T02:05:41;16.73;;;14.88;;
7939;SDS011;4015;48.888;9.226;2022-08-19T02:08:08;16.15;;;14.55;;
7939;SDS011;4015;48.888;9.226;2022-08-19T02:10:37;16.02;;;14.27;;
7939;SDS011;4015;48.888;9.226;2022-08-19T02:13:07;15.80;;;14.23;;
7939;SDS011;4015;48.888;9.226;2022-08-19T02:15:33;16.42;;;14.75;;
7939;SDS011;4015;48.888;9.226;2022-08-19T02:17:58;16.25;;;14.25;;
7939;SDS011;4015;48.888;9.226;2022-08-19T02:20:24;16.67;;;14.93;;
7939;SDS011;4015;48.888;9.226;2022-08-19T02:22:49;16.00;;;14.40;;
7939;SDS011;4015;48.888;9.226;2022-08-19T02:25:15;16.90;;;15.30;;
7939;SDS011;4015;48.888;9.226;2022-08-19T02:27:41;17.33;;;15.20;;
7939;SDS011;4015;48.888;9.226;2022-08-19T02:30:08;19.35;;;16.42;;
7939;SDS011;4015;48.888;9.226;2022-08-19T02:32:40;18.48;;;15.73;;
7939;SDS011;4015;48.888;9.226;2022-08-19T02:35:06;19.02;;;16.85;;
7939;SDS011;4015;48.888;9.226;2022-08-19T02:37:32;17.05;;;15.35;;
7939;SDS011;4015;48.888;9.226;2022-08-19T02:40:16;21.25;;;15.45;;
7939;SDS011;4015;48.888;9.226;2022-08-19T02:42:42;19.88;;;17.58;;
7939;SDS011;4015;48.888;9.226;2022-08-19T02:45:10;20.17;;;17.65;;
7939;SDS011;4015;48.888;9.226;2022-08-19T02:47:35;20.08;;;15.68;;
7939;SDS011;4015;48.888;9.226;2022-08-19T02:50:01;19.27;;;17.17;;
7939;SDS011;4015;48.888;9.226;2022-08-19T02:52:27;19.00;;;17.00;;
7939;SDS011;4015;48.888;9.226;2022-08-19T02:54:53;19.83;;;17.75;;
7939;SDS011;4015;48.888;9.226;2022-08-19T02:57:18;19.17;;;17.05;;
7939;SDS011;4015;48.888;9.226;2022-08-19T02:59:44;21.77;;;17.60;;
7939;SDS011;4015;48.888;9.226;2022-08-19T03:02:09;20.02;;;17.48;;
7939;SDS011;4015;48.888;9.226;2022-08-19T03:04:34;21.45;;;18.30;;
7939;SDS011;4015;48.888;9.226;2022-08-19T03:07:00;18.83;;;16.90;;
7939;SDS011;4015;48.888;9.226;2022-08-19T03:09:25;20.13;;;17.92;;
7939;SDS011;4015;48.888;9.226;2022-08-19T03:11:50;19.23;;;17.05;;
7939;SDS011;4015;48.888;9.226;2022-08-19T03:14:16;21.55;;;19.10;;
7939;SDS011;4015;48.888;9.226;2022-08-19T03:16:46;22.23;;;19.10;;
7939;SDS011;4015;48.888;9.226;2022-08-19T03:19:14;20.90;;;18.80;;
7939;SDS011;4015;48.888;9.226;2022-08-19T03:21:42;19.25;;;17.20;;
7939;SDS011;4015;48.888;9.226;2022-08-19T03:24:12;20.02;;;17.92;;
7939;SDS011;4015;48.888;9.226;2022-08-19T03:26:39;20.73;;;18.63;;
7939;SDS011;4015;48.888;9.226;2022-08-19T03:29:06;21.05;;;18.88;;
7939;SDS011;4015;48.888;9.226;2022-08-19T03:31:35;21.63;;;19.42;;
7939;SDS011;4015;48.888;9.226;2022-08-19T03:34:00;20.27;;;18.15;;
7939;SDS011;4015;48.888;9.226;2022-08-19T03:36:26;20.58;;;18.33;;
7939;SDS011;4015;48.888;9.226;2022-08-19T03:38:53;21.83;;;19.40;;
7939;SDS011;4015;48.888;9.226;2022-08-19T03:41:24;20.45;;;18.35;;
7939;SDS011;4015;48.888;9.226;2022-08-19T03:43:53;21.23;;;18.95;;
7939;SDS011;4015;48.888;9.226;2022-08-19T03:46:21;21.77;;;19.48;;
7939;SDS011;4015;48.888;9.226;2022-08-19T03:48:51;21.67;;;19.25;;
7939;SDS011;4015;48.888;9.226;2022-08-19T03:51:23;22.58;;;20.27;;
7939;SDS011;4015;48.888;9.226;2022-08-19T03:53:51;22.90;;;19.20;;
7939;SDS011;4015;48.888;9.226;2022-08-19T03:56:18;21.58;;;19.45;;
7939;SDS011;4015;48.888;9.226;2022-08-19T03:58:44;22.58;;;20.15;;
7939;SDS011;4015;48.888;9.226;2022-08-19T04:01:15;22.85;;;20.45;;
7939;SDS011;4015;48.888;9.226;2022-08-19T04:03:42;21.60;;;19.40;;
7939;SDS011;4015;48.888;9.226;2022-08-19T04:08:40;22.42;;;20.02;;
7939;SDS011;4015;48.888;9.226;2022-08-19T04:11:07;22.15;;;19.42;;
7939;SDS011;4015;48.888;9.226;2022-08-19T04:13:37;22.02;;;19.75;;
7939;SDS011;4015;48.888;9.226;2022-08-19T04:16:03;23.08;;;20.67;;
7939;SDS011;4015;48.888;9.226;2022-08-19T04:18:29;24.15;;;20.10;;
7939;SDS011;4015;48.888;9.226;2022-08-19T04:20:55;21.05;;;18.98;;
7939;SDS011;4015;48.888;9.226;2022-08-19T04:23:21;23.23;;;20.83;;
7939;SDS011;4015;48.888;9.226;2022-08-19T04:25:47;21.13;;;19.02;;
7939;SDS011;4015;48.888;9.226;2022-08-19T04:28:12;24.67;;;21.33;;
7939;SDS011;4015;48.888;9.226;2022-08-19T04:30:42;23.08;;;20.77;;
7939;SDS011;4015;48.888;9.226;2022-08-19T04:33:10;23.98;;;21.67;;
7939;SDS011;4015;48.888;9.226;2022-08-19T04:35:39;24.33;;;21.83;;
7939;SDS011;4015;48.888;9.226;2022-08-19T04:38:06;24.73;;;22.17;;
7939;SDS011;4015;48.888;9.226;2022-08-19T04:40:32;23.40;;;21.00;;
7939;SDS011;4015;48.888;9.226;2022-08-19T04:43:15;23.50;;;21.08;;
7939;SDS011;4015;48.888;9.226;2022-08-19T04:45:42;23.02;;;20.70;;
7939;SDS011;4015;48.888;9.226;2022-08-19T04:48:09;23.13;;;20.73;;
7939;SDS011;4015;48.888;9.226;2022-08-19T04:50:34;22.92;;;20.45;;
7939;SDS011;4015;48.888;9.226;2022-08-19T04:53:01;23.38;;;21.13;;
7939;SDS011;4015;48.888;9.226;2022-08-19T04:55:26;23.67;;;21.15;;
7939;SDS011;4015;48.888;9.226;2022-08-19T04:57:51;24.13;;;21.55;;
7939;SDS011;4015;48.888;9.226;2022-08-19T05:00:17;26.48;;;22.52;;
7939;SDS011;4015;48.888;9.226;2022-08-19T05:02:42;23.48;;;21.23;;
7939;SDS011;4015;48.888;9.226;2022-08-19T05:05:08;23.73;;;21.27;;
7939;SDS011;4015;48.888;9.226;2022-08-19T05:07:33;24.15;;;21.80;;
7939;SDS011;4015;48.888;9.226;2022-08-19T05:09:59;24.13;;;21.55;;
7939;SDS011;4015;48.888;9.226;2022-08-19T05:12:25;23.33;;;20.95;;
7939;SDS011;4015;48.888;9.226;2022-08-19T05:14:52;22.95;;;20.63;;
7939;SDS011;4015;48.888;9.226;2022-08-19T05:17:17;23.52;;;21.00;;
7939;SDS011;4015;48.888;9.226;2022-08-19T05:19:43;23.80;;;21.30;;
7939;SDS011;4015;48.888;9.226;2022-08-19T05:22:27;25.35;;;22.02;;
7939;SDS011;4015;48.888;9.226;2022-08-19T05:25:04;24.38;;;21.55;;
7939;SDS011;4015;48.888;9.226;2022-08-19T05:27:31;24.63;;;22.10;;
7939;SDS011;4015;48.888;9.226;2022-08-19T05:29:58;24.95;;;22.33;;
7939;SDS011;4015;48.888;9.226;2022-08-19T05:32:24;23.33;;;21.08;;
7939;SDS011;4015;48.888;9.226;2022-08-19T05:34:49;24.30;;;21.83;;
7939;SDS011;4015;48.888;9.226;2022-08-19T05:37:14;38.63;;;34.45;;
7939;SDS011;4015;48.888;9.226;2022-08-19T05:39:40;26.23;;;22.38;;
7939;SDS011;4015;48.888;9.226;2022-08-19T05:42:07;24.70;;;22.13;;
7939;SDS011;4015;48.888;9.226;2022-08-19T05:44:36;23.60;;;20.25;;
7939;SDS011;4015;48.888;9.226;2022-08-19T05:47:04;23.88;;;21.42;;
7939;SDS011;4015;48.888;9.226;2022-08-19T05:49:32;23.50;;;20.92;;
7939;SDS011;4015;48.888;9.226;2022-08-19T05:51:58;24.17;;;21.58;;
7939;SDS011;4015;48.888;9.226;2022-08-19T05:54:28;22.35;;;19.90;;
7939;SDS011;4015;48.888;9.226;2022-08-19T05:56:55;25.38;;;23.00;;
7939;SDS011;4015;48.888;9.226;2022-08-19T05:59:20;23.10;;;20.65;;
7939;SDS011;4015;48.888;9.226;2022-08-19T06:01:47;22.55;;;20.35;;
7939;SDS011;4015;48.888;9.226;2022-08-19T06:04:17;25.75;;;22.77;;
7939;SDS011;4015;48.888;9.226;2022-08-19T06:06:44;23.52;;;21.30;;
7939;SDS011;4015;48.888;9.226;2022-08-19T06:09:13;23.80;;;21.50;;
7939;SDS011;4015;48.888;9.226;2022-08-19T06:11:44;24.20;;;21.15;;
7939;SDS011;4015;48.888;9.226;2022-08-19T06:14:14;22.88;;;20.73;;
7939;SDS011;4015;48.888;9.226;2022-08-19T06:16:41;24.02;;;21.58;;
7939;SDS011;4015;48.888;9.226;2022-08-19T06:19:09;24.55;;;21.70;;
7939;SDS011;4015;48.888;9.226;2022-08-19T06:21:42;24.35;;;22.10;;
7939;SDS011;4015;48.888;9.226;2022-08-19T06:24:09;23.85;;;21.42;;
7939;SDS011;4015;48.888;9.226;2022-08-19T06:26:37;23.63;;;21.30;;
7939;SDS011;4015;48.888;9.226;2022-08-19T06:29:04;27.30;;;24.60;;
7939;SDS011;4015;48.888;9.226;2022-08-19T06:31:32;24.58;;;21.95;;
7939;SDS011;4015;48.888;9.226;2022-08-19T06:33:59;24.50;;;22.05;;
7939;SDS011;4015;48.888;9.226;2022-08-19T06:36:30;25.42;;;22.65;;
7939;SDS011;4015;48.888;9.226;2022-08-19T06:38:58;24.58;;;21.98;;
7939;SDS011;4015;48.888;9.226;2022-08-19T06:41:37;23.23;;;20.92;;
7939;SDS011;4015;48.888;9.226;2022-08-19T06:44:05;24.23;;;21.90;;
7939;SDS011;4015;48.888;9.226;2022-08-19T06:46:32;24.77;;;22.27;;
7939;SDS011;4015;48.888;9.226;2022-08-19T06:48:58;24.67;;;22.17;;
7939;SDS011;4015;48.888;9.226;2022-08-19T06:51:24;25.02;;;22.63;;
7939;SDS011;4015;48.888;9.226;2022-08-19T06:53:51;24.60;;;22.10;;
7939;SDS011;4015;48.888;9.226;2022-08-19T06:56:20;24.00;;;21.63;;
7939;SDS011;4015;48.888;9.226;2022-08-19T06:58:55;23.60;;;21.40;;
7939;SDS011;4015;48.888;9.226;2022-08-19T07:01:21;24.58;;;22.23;;
7939;SDS011;4015;48.888;9.226;2022-08-19T07:03:47;25.30;;;23.00;;
7939;SDS011;4015;48.888;9.226;2022-08-19T07:06:13;24.77;;;22.48;;
7939;SDS011;4015;48.888;9.226;2022-08-19T07:08:42;23.88;;;21.55;;
7939;SDS011;4015;48.888;9.226;2022-08-19T07:11:09;23.05;;;20.55;;
7939;SDS011;4015;48.888;9.226;2022-08-19T07:13:38;22.65;;;20.38;;
7939;SDS011;4015;48.888;9.226;2022-08-19T07:16:05;22.67;;;20.40;;
7939;SDS011;4015;48.888;9.226;2022-08-19T07:18:32;22.88;;;20.67;;
7939;SDS011;4015;48.888;9.226;2022-08-19T07:21:04;22.17;;;20.08;;
7939;SDS011;4015;48.888;9.226;2022-08-19T07:23:31;20.77;;;18.52;;
7939;SDS011;4015;48.888;9.226;2022-08-19T07:25:57;20.63;;;18.63;;
7939;SDS011;4015;48.888;9.226;2022-08-19T07:28:22;21.10;;;18.90;;
7939;SDS011;4015;48.888;9.226;2022-08-19T07:30:48;19.48;;;17.73;;
7939;SDS011;4015;48.888;9.226;2022-08-19T07:33:15;19.90;;;17.90;;
7939;SDS011;4015;48.888;9.226;2022-08-19T07:35:41;22.63;;;19.85;;
7939;SDS011;4015;48.888;9.226;2022-08-19T07:38:07;21.95;;;19.23;;
7939;SDS011;4015;48.888;9.226;2022-08-19T07:40:32;27.35;;;20.67;;
7939;SDS011;4015;48.888;9.226;2022-08-19T07:42:58;21.58;;;19.45;;
7939;SDS011;4015;48.888;9.226;2022-08-19T07:45:24;23.25;;;19.98;;
7939;SDS011;4015;48.888;9.226;2022-08-19T07:47:49;23.13;;;20.63;;
7939;SDS011;4015;48.888;9.226;2022-08-19T07:50:15;21.65;;;19.45;;
7939;SDS011;4015;48.888;9.226;2022-08-19T07:52:40;20.58;;;18.58;;
7939;SDS011;4015;48.888;9.226;2022-08-19T07:55:09;20.48;;;18.52;;
7939;SDS011;4015;48.888;9.226;2022-08-19T07:57:35;25.25;;;22.67;;
7939;SDS011;4015;48.888;9.226;2022-08-19T08:00:02;21.95;;;18.40;;
7939;SDS011;4015;48.888;9.226;2022-08-19T08:02:29;20.33;;;18.35;;
7939;SDS011;4015;48.888;9.226;2022-08-19T08:04:54;19.05;;;17.05;;
7939;SDS011;4015;48.888;9.226;2022-08-19T08:07:38;18.83;;;16.83;;
7939;SDS011;4015;48.888;9.226;2022-08-19T08:10:22;19.45;;;17.55;;
7939;SDS011;4015;48.888;9.226;2022-08-19T08:12:48;19.25;;;17.45;;
7939;SDS011;4015;48.888;9.226;2022-08-19T08:15:14;21.52;;;17.45;;
7939;SDS011;4015;48.888;9.226;2022-08-19T08:17:44;21.60;;;19.20;;
7939;SDS011;4015;48.888;9.226;2022-08-19T08:20:10;18.77;;;17.02;;
7939;SDS011;4015;48.888;9.226;2022-08-19T08:22:36;21.25;;;19.10;;
7939;SDS011;4015;48.888;9.226;2022-08-19T08:25:21;22.13;;;19.88;;
7939;SDS011;4015;48.888;9.226;2022-08-19T08:27:48;21.80;;;19.58;;
7939;SDS011;4015;48.888;9.226;2022-08-19T08:30:19;21.42;;;19.40;;
7939;SDS011;4015;48.888;9.226;2022-08-19T08:32:47;20.77;;;18.70;;
7939;SDS011;4015;48.888;9.226;2022-08-19T08:35:14;21.60;;;19.48;;
7939;SDS011;4015;48.888;9.226;2022-08-19T08:37:42;20.38;;;18.38;;
7939;SDS011;4015;48.888;9.226;2022-08-19T08:43:35;20.77;;;18.50;;
7939;SDS011;4015;48.888;9.226;2022-08-19T08:46:10;22.00;;;19.63;;
7939;SDS011;4015;48.888;9.226;2022-08-19T08:54:13;20.75;;;18.58;;
7939;SDS011;4015;48.888;9.226;2022-08-19T08:56:42;20.35;;;18.25;;
7939;SDS011;4015;48.888;9.226;2022-08-19T08:59:17;18.70;;;16.45;;
7939;SDS011;4015;48.888;9.226;2022-08-19T09:01:51;18.95;;;16.98;;
7939;SDS011;4015;48.888;9.226;2022-08-19T09:04:16;18.52;;;16.63;;
7939;SDS011;4015;48.888;9.226;2022-08-19T09:06:51;18.90;;;16.75;;
7939;SDS011;4015;48.888;9.226;2022-08-19T09:09:40;18.77;;;16.98;;
7939;SDS011;4015;48.888;9.226;2022-08-19T09:12:21;19.55;;;16.95;;
7939;SDS011;4015;48.888;9.226;2022-08-19T09:14:58;18.88;;;16.88;;
7939;SDS011;4015;48.888;9.226;2022-08-19T09:17:27;18.80;;;17.08;;
7939;SDS011;4015;48.888;9.226;2022-08-19T09:20:00;18.65;;;16.67;;
7939;SDS011;4015;48.888;9.226;2022-08-19T09:22:32;17.98;;;16.38;;
7939;SDS011;4015;48.888;9.226;2022-08-19T09:25:01;17.40;;;15.68;;
7939;SDS011;4015;48.888;9.226;2022-08-19T09:27:28;19.25;;;16.52;;
7939;SDS011;4015;48.888;9.226;2022-08-19T09:30:01;17.75;;;15.88;;
7939;SDS011;4015;48.888;9.226;2022-08-19T09:32:31;18.38;;;16.60;;
7939;SDS011;4015;48.888;9.226;2022-08-19T09:34:57;17.65;;;15.95;;
7939;SDS011;4015;48.888;9.226;2022-08-19T09:37:23;17.85;;;16.15;;
7939;SDS011;4015;48.888;9.226;2022-08-19T09:39:49;16.35;;;14.65;;
7939;SDS011;4015;48.888;9.226;2022-08-19T09:42:15;19.27;;;16.02;;
7939;SDS011;4015;48.888;9.226;2022-08-19T09:44:41;17.13;;;15.35;;
7939;SDS011;4015;48.888;9.226;2022-08-19T09:47:07;16.65;;;14.88;;
7939;SDS011;4015;48.888;9.226;2022-08-19T09:49:34;16.55;;;14.95;;
7939;SDS011;4015;48.888;9.226;2022-08-19T09:52:00;16.88;;;15.18;;
7939;SDS011;4015;48.888;9.226;2022-08-19T09:54:26;16.40;;;14.32;;
7939;SDS011;4015;48.888;9.226;2022-08-19T09:56:55;17.63;;;15.00;;
7939;SDS011;4015;48.888;9.226;2022-08-19T09:59:22;17.02;;;15.38;;
7939;SDS011;4015;48.888;9.226;2022-08-19T10:01:48;16.33;;;14.73;;
7939;SDS011;4015;48.888;9.226;2022-08-19T10:04:14;17.17;;;14.45;;
7939;SDS011;4015;48.888;9.226;2022-08-19T10:06:40;14.68;;;13.30;;
7939;SDS011;4015;48.888;9.226;2022-08-19T10:09:07;16.05;;;14.27;;
7939;SDS011;4015;48.888;9.226;2022-08-19T10:11:36;14.85;;;13.30;;
7939;SDS011;4015;48.888;9.226;2022-08-19T10:14:04;15.30;;;13.68;;
7939;SDS011;4015;48.888;9.226;2022-08-19T10:16:30;14.15;;;12.60;;
7939;SDS011;4015;48.888;9.226;2022-08-19T10:18:56;15.02;;;13.32;;
7939;SDS011;4015;48.888;9.226;2022-08-19T10:21:22;13.80;;;12.40;;
7939;SDS011;4015;48.888;9.226;2022-08-19T10:23:55;15.43;;;13.38;;
7939;SDS011;4015;48.888;9.226;2022-08-19T10:26:26;13.57;;;12.07;;
7939;SDS011;4015;48.888;9.226;2022-08-19T10:28:55;15.93;;;12.32;;
7939;SDS011;4015;48.888;9.226;2022-08-19T10:31:22;13.52;;;12.20;;
7939;SDS011;4015;48.888;9.226;2022-08-19T10:33:56;12.23;;;11.13;;
7939;SDS011;4015;48.888;9.226;2022-08-19T10:36:24;13.10;;;11.80;;
7939;SDS011;4015;48.888;9.226;2022-08-19T10:38:52;14.05;;;11.70;;
7939;SDS011;4015;48.888;9.226;2022-08-19T10:41:20;13.52;;;11.48;;
7939;SDS011;4015;48.888;9.226;2022-08-19T10:43:49;13.43;;;11.88;;
7939;SDS011;4015;48.888;9.226;2022-08-19T10:46:17;12.38;;;11.10;;
7939;SDS011;4015;48.888;9.226;2022-08-19T10:48:43;12.75;;;11.45;;
7939;SDS011;4015;48.888;9.226;2022-08-19T10:51:09;11.32;;;10.15;;
7939;SDS011;4015;48.888;9.226;2022-08-19T10:53:54;12.63;;;10.32;;
7939;SDS011;4015;48.888;9.226;2022-08-19T10:56:20;14.02;;;10.32;;
7939;SDS011;4015;48.888;9.226;2022-08-19T10:59:05;10.18;;;9.15;;
7939;SDS011;4015;48.888;9.226;2022-08-19T11:01:30;11.23;;;10.13;;
7939;SDS011;4015;48.888;9.226;2022-08-19T11:03:59;9.73;;;8.82;;
7939;SDS011;4015;48.888;9.226;2022-08-19T11:06:26;20.92;;;18.73;;
7939;SDS011;4015;48.888;9.226;2022-08-19T11:08:52;10.95;;;9.40;;
7939;SDS011;4015;48.888;9.226;2022-08-19T11:11:19;8.18;;;7.35;;
7939;SDS011;4015;48.888;9.226;2022-08-19T11:13:44;7.80;;;6.70;;
7939;SDS011;4015;48.888;9.226;2022-08-19T11:16:19;8.57;;;6.38;;
7939;SDS011;4015;48.888;9.226;2022-08-19T11:18:48;8.95;;;6.95;;
7939;SDS011;4015;48.888;9.226;2022-08-19T11:21:17;7.15;;;6.28;;
7939;SDS011;4015;48.888;9.226;2022-08-19T11:23:43;7.18;;;6.43;;
7939;SDS011;4015;48.888;9.226;2022-08-19T11:26:10;8.48;;;7.65;;
7939;SDS011;4015;48.888;9.226;2022-08-19T11:28:36;8.10;;;7.30;;
7939;SDS011;4015;48.888;9.226;2022-08-19T11:31:02;8.68;;;7.32;;
7939;SDS011;4015;48.888;9.226;2022-08-19T11:33:29;8.45;;;7.05;;
7939;SDS011;4015;48.888;9.226;2022-08-19T11:35:57;7.78;;;7.03;;
7939;SDS011;4015;48.888;9.226;2022-08-19T11:38:23;10.63;;;6.97;;
7939;SDS011;4015;48.888;9.226;2022-08-19T11:40:55;8.10;;;7.30;;
7939;SDS011;4015;48.888;9.226;2022-08-19T11:43:25;8.98;;;8.10;;
7939;SDS011;4015;48.888;9.226;2022-08-19T11:45:52;9.05;;;8.18;;
7939;SDS011;4015;48.888;9.226;2022-08-19T11:48:20;9.77;;;8.52;;
7939;SDS011;4015;48.888;9.226;2022-08-19T11:50:51;8.98;;;8.18;;
7939;SDS011;4015;48.888;9.226;2022-08-19T11:53:20;9.65;;;8.75;;
7939;SDS011;4015;48.888;9.226;2022-08-19T11:55:46;9.45;;;8.60;;
7939;SDS011;4015;48.888;9.226;2022-08-19T11:58:13;9.32;;;8.43;;
7939;SDS011;4015;48.888;9.226;2022-08-19T12:00:40;9.55;;;8.50;;
7939;SDS011;4015;48.888;9.226;2022-08-19T12:03:06;7.72;;;7.05;;
7939;SDS011;4015;48.888;9.226;2022-08-19T12:05:32;9.07;;;8.25;;
7939;SDS011;4015;48.888;9.226;2022-08-19T12:07:57;10.38;;;8.98;;
7939;SDS011;4015;48.888;9.226;2022-08-19T12:10:23;10.45;;;9.45;;
7939;SDS011;4015;48.888;9.226;2022-08-19T12:12:49;11.50;;;8.82;;
7939;SDS011;4015;48.888;9.226;2022-08-19T12:15:15;10.02;;;9.02;;
7939;SDS011;4015;48.888;9.226;2022-08-19T12:17:40;40.35;;;36.20;;
7939;SDS011;4015;48.888;9.226;2022-08-19T12:20:07;20.88;;;18.45;;
7939;SDS011;4015;48.888;9.226;2022-08-19T12:22:34;8.85;;;8.00;;
7939;SDS011;4015;48.888;9.226;2022-08-19T12:25:00;10.20;;;8.65;;
7939;SDS011;4015;48.888;9.226;2022-08-19T12:27:26;10.02;;;7.80;;
7939;SDS011;4015;48.888;9.226;2022-08-19T12:29:51;8.60;;;7.63;;
7939;SDS011;4015;48.888;9.226;2022-08-19T12:32:16;8.40;;;7.45;;
7939;SDS011;4015;48.888;9.226;2022-08-19T12:34:42;9.60;;;7.95;;
7939;SDS011;4015;48.888;9.226;2022-08-19T12:37:08;10.98;;;8.70;;
7939;SDS011;4015;48.888;9.226;2022-08-19T12:39:37;8.60;;;7.90;;
7939;SDS011;4015;48.888;9.226;2022-08-19T12:42:04;8.00;;;7.20;;
7939;SDS011;4015;48.888;9.226;2022-08-19T12:44:30;8.75;;;7.90;;
7939;SDS011;4015;48.888;9.226;2022-08-19T12:46:57;8.27;;;7.50;;
7939;SDS011;4015;48.888;9.226;2022-08-19T12:49:23;7.70;;;7.07;;
7939;SDS011;4015;48.888;9.226;2022-08-19T12:51:48;8.38;;;7.57;;
7939;SDS011;4015;48.888;9.226;2022-08-19T12:54:14;8.50;;;7.57;;
7939;SDS011;4015;48.888;9.226;2022-08-19T12:56:39;7.82;;;7.07;;
7939;SDS011;4015;48.888;9.226;2022-08-19T12:59:05;8.88;;;7.82;;
7939;SDS011;4015;48.888;9.226;2022-08-19T13:01:33;8.75;;;7.97;;
7939;SDS011;4015;48.888;9.226;2022-08-19T13:03:58;8.65;;;7.45;;
7939;SDS011;4015;48.888;9.226;2022-08-19T13:06:25;8.00;;;7.30;;
7939;SDS011;4015;48.888;9.226;2022-08-19T13:08:51;14.15;;;10.38;;
7939;SDS011;4015;48.888;9.226;2022-08-19T13:11:19;20.75;;;18.63;;
7939;SDS011;4015;48.888;9.226;2022-08-19T13:13:47;8.65;;;7.75;;
7939;SDS011;4015;48.888;9.226;2022-08-19T13:16:15;8.82;;;7.07;;
7939;SDS011;4015;48.888;9.226;2022-08-19T13:18:41;8.02;;;7.22;;
7939;SDS011;4015;48.888;9.226;2022-08-19T13:21:09;9.45;;;6.93;;
7939;SDS011;4015;48.888;9.226;2022-08-19T13:23:38;8.57;;;7.68;;
7939;SDS011;4015;48.888;9.226;2022-08-19T13:26:04;8.13;;;7.07;;
7939;SDS011;4015;48.888;9.226;2022-08-19T13:28:31;7.88;;;7.07;;
7939;SDS011;4015;48.888;9.226;2022-08-19T13:31:19;9.38;;;8.05;;
7939;SDS011;4015;48.888;9.226;2022-08-19T13:34:05;7.50;;;6.68;;
7939;SDS011;4015;48.888;9.226;2022-08-19T13:36:34;8.07;;;6.68;;
7939;SDS011;4015;48.888;9.226;2022-08-19T13:39:00;8.93;;;6.55;;
7939;SDS011;4015;48.888;9.226;2022-08-19T13:41:26;8.13;;;7.03;;
7939;SDS011;4015;48.888;9.226;2022-08-19T13:43:52;7.90;;;7.10;;
7939;SDS011;4015;48.888;9.226;2022-08-19T13:46:19;7.32;;;6.63;;
7939;SDS011;4015;48.888;9.226;2022-08-19T13:48:45;8.32;;;7.63;;
7939;SDS011;4015;48.888;9.226;2022-08-19T13:51:11;15.68;;;14.07;;
7939;SDS011;4015;48.888;9.226;2022-08-19T13:53:37;16.25;;;14.57;;
7939;SDS011;4015;48.888;9.226;2022-08-19T13:56:06;16.77;;;15.23;;
7939;SDS011;4015;48.888;9.226;2022-08-19T13:58:33;21.30;;;16.23;;
7939;SDS011;4015;48.888;9.226;2022-08-19T14:00:59;24.08;;;21.67;;
7939;SDS011;4015;48.888;9.226;2022-08-19T14:03:25;21.45;;;19.25;;
7939;SDS011;4015;48.888;9.226;2022-08-19T14:05:50;20.58;;;18.58;;
7939;SDS011;4015;48.888;9.226;2022-08-19T14:08:16;22.77;;;20.23;;
7939;SDS011;4015;48.888;9.226;2022-08-19T14:10:42;22.73;;;20.05;;
7939;SDS011;4015;48.888;9.226;2022-08-19T14:13:09;23.10;;;20.88;;
7939;SDS011;4015;48.888;9.226;2022-08-19T14:15:38;21.58;;;19.52;;
7939;SDS011;4015;48.888;9.226;2022-08-19T14:18:03;22.48;;;20.40;;
7939;SDS011;4015;48.888;9.226;2022-08-19T14:20:28;23.55;;;21.15;;
7939;SDS011;4015;48.888;9.226;2022-08-19T14:22:54;22.20;;;20.08;;
7939;SDS011;4015;48.888;9.226;2022-08-19T14:25:22;22.92;;;20.67;;
7939;SDS011;4015;48.888;9.226;2022-08-19T14:27:52;22.75;;;20.45;;
7939;SDS011;4015;48.888;9.226;2022-08-19T14:30:20;23.13;;;20.77;;
7939;SDS011;4015;48.888;9.226;2022-08-19T14:32:50;22.63;;;20.42;;
7939;SDS011;4015;48.888;9.226;2022-08-19T14:35:16;26.23;;;21.45;;
7939;SDS011;4015;48.888;9.226;2022-08-19T14:37:44;23.45;;;21.05;;
7939;SDS011;4015;48.888;9.226;2022-08-19T14:40:10;26.50;;;23.90;;
7939;SDS011;4015;48.888;9.226;2022-08-19T14:42:37;23.42;;;21.17;;
7939;SDS011;4015;48.888;9.226;2022-08-19T14:45:02;23.75;;;21.35;;
7939;SDS011;4015;48.888;9.226;2022-08-19T14:47:30;25.85;;;23.35;;
7939;SDS011;4015;48.888;9.226;2022-08-19T14:49:55;25.85;;;23.30;;
7939;SDS011;4015;48.888;9.226;2022-08-19T14:52:27;28.65;;;25.95;;
7939;SDS011;4015;48.888;9.226;2022-08-19T14:54:53;27.52;;;24.80;;
7939;SDS011;4015;48.888;9.226;2022-08-19T14:57:19;28.52;;;25.63;;
7939;SDS011;4015;48.888;9.226;2022-08-19T14:59:48;27.55;;;24.67;;
7939;SDS011;4015;48.888;9.226;2022-08-19T15:02:17;26.80;;;24.13;;
7939;SDS011;4015;48.888;9.226;2022-08-19T15:04:51;24.75;;;22.40;;
7939;SDS011;4015;48.888;9.226;2022-08-19T15:07:20;25.38;;;22.73;;